Karl Stefan Memorial Airport
KOFK : now visible

Airfield :











YOU CAN JOIN US ON...

 
LOGIN :

Register | Disclaimer

   EN    FR    IT 

 









Legend :    VFR   Marginal VFR   IFR   Intensive IFR   Very Intensive IFR
Visi :
Ceiling :
>= 8 km
>= 3000ft
5 to 8 km
1000 to 3000 ft
1500m to 5 km
500 to 1000 ft
800 to 1500m
200 to 500 ft
< 800m
< 200 ft
Symbols :   Thunderstorms  Fog  Heavy snow  Heavy precipitations  Wind > 20 kt






- Airport Elevation : 1573 ft


KOFK - Karl Stefan Memorial

CURRENT METAR :
  • 061556Z AUTO VRB03KT 10SM OVC009 M03/M06 A3042 RMK AO2 SLP320 T10331056

EXPIRED METARs :
  • 061456Z AUTO 00000KT 10SM OVC009 M03/M06 A3039 RMK AO2 SLP311 T10331056 53012
  • 061356Z AUTO 34008KT 10SM OVC009 M03/M06 A3037 RMK AO2 SLP304 T10331061 $
  • 061324Z AUTO 36007KT 10SM OVC009 M03/M06 A3036 RMK AO2 T10331061 $

TAF KOFK
Valid from the 06 at 15:00 until the 07 at 12:00 UTC


061501Z 0615/0712 36007KT P6SM OVC009
FM061700 14003KT P6SM SCT020
FM062000 17006KT P6SM FEW020
FM070500 19012KT P6SM SKC



MET'MAP, your aeronautical weather chart ! - Copyright ORBIFLY December 2007 - Disclaimer

ORBIFLY MET'MAP TEAM :

Programming & Development : Alexandra Zaïnal
Concept & original design : Baudouin d'Aumeries
Assistance for programming : Marc-Olivier Méhu
Technical & hardware support : Manuel Goepfert

Contact : metmap@orbifly.com




SOURCES & CREDITS :

   NOAA       Earth
Advisory